createdAt,value
2017-11-08T00:00:16.524Z,8.00
2017-11-08T00:02:51.550Z,7.96
2017-11-08T00:05:26.712Z,7.95
2017-11-08T00:08:02.312Z,7.91
2017-11-08T00:10:37.560Z,7.98
2017-11-08T00:13:12.570Z,8.02
2017-11-08T00:15:47.634Z,8.06
2017-11-08T00:18:25.275Z,8.09
2017-11-08T00:21:00.043Z,8.08
2017-11-08T00:23:35.612Z,8.12
2017-11-08T00:26:10.827Z,8.17
2017-11-08T00:28:46.035Z,8.18
2017-11-08T00:31:20.765Z,8.14
2017-11-08T00:33:55.696Z,8.16
2017-11-08T00:36:30.400Z,8.14
2017-11-08T00:39:04.984Z,8.13
2017-11-08T00:41:39.695Z,8.16
2017-11-08T00:44:14.654Z,8.20
2017-11-08T00:46:49.948Z,8.24
2017-11-08T00:49:25.514Z,8.25
2017-11-08T00:52:00.415Z,8.22
2017-11-08T00:54:35.448Z,8.22
2017-11-08T00:57:10.304Z,8.21
2017-11-08T00:59:45.456Z,8.21
2017-11-08T01:02:20.452Z,8.22
2017-11-08T01:04:55.236Z,8.24
2017-11-08T01:07:30.155Z,8.24
2017-11-08T01:10:05.163Z,8.22
2017-11-08T01:12:40.576Z,8.20
2017-11-08T01:15:15.768Z,8.08
2017-11-08T01:17:50.662Z,8.12
2017-11-08T01:20:25.984Z,8.14
2017-11-08T01:23:00.928Z,8.10
2017-11-08T01:25:35.738Z,8.09
2017-11-08T01:28:10.584Z,8.14
2017-11-08T01:30:45.863Z,8.15
2017-11-08T01:33:20.964Z,8.15
2017-11-08T01:35:55.529Z,8.21
2017-11-08T01:38:30.493Z,8.20
2017-11-08T01:54:34.880Z,7.90
2017-11-08T01:57:09.440Z,7.88
2017-11-08T01:59:44.107Z,7.83
2017-11-08T02:02:18.654Z,7.87
2017-11-08T02:04:53.115Z,7.86
2017-11-08T02:07:28.163Z,7.76
2017-11-08T02:10:02.892Z,7.71
2017-11-08T02:12:37.815Z,7.72
2017-11-08T02:15:12.563Z,7.77
2017-11-08T02:17:51.983Z,7.86
2017-11-08T02:20:26.892Z,7.89
2017-11-08T02:23:01.664Z,7.94
2017-11-08T02:25:36.419Z,7.99
2017-11-08T02:28:11.296Z,8.05
2017-11-08T02:30:46.255Z,8.07
2017-11-08T02:33:20.300Z,8.05
2017-11-08T02:35:55.318Z,8.10
2017-11-08T02:38:30.630Z,8.10
2017-11-08T02:41:05.555Z,8.06
2017-11-08T02:43:40.588Z,8.08
2017-11-08T02:46:20.569Z,8.05
2017-11-08T02:48:55.315Z,8.06
2017-11-08T02:51:29.812Z,8.09
2017-11-08T02:54:05.153Z,8.18
2017-11-08T02:56:40.081Z,8.18
2017-11-08T02:59:15.132Z,8.08
2017-11-08T03:01:50.164Z,8.12
2017-11-08T03:04:25.628Z,8.11
2017-11-08T03:07:00.119Z,8.13
2017-11-08T03:09:35.391Z,8.14
2017-11-08T03:12:10.448Z,8.18
2017-11-08T03:14:45.176Z,8.26
2017-11-08T03:17:20.131Z,8.30
2017-11-08T03:19:55.104Z,8.35
2017-11-08T03:22:29.744Z,8.42
2017-11-08T03:25:04.655Z,8.47
2017-11-08T03:27:39.696Z,8.47
2017-11-08T03:30:14.098Z,8.46
2017-11-08T03:32:49.352Z,8.45
2017-11-08T03:35:23.852Z,8.49
2017-11-08T03:37:59.236Z,8.46
2017-11-08T03:40:34.193Z,8.45
2017-11-08T03:43:09.225Z,8.45
2017-11-08T03:45:44.289Z,8.49
2017-11-08T03:48:19.575Z,8.48
2017-11-08T03:50:54.412Z,8.46
2017-11-08T03:53:29.764Z,8.39
2017-11-08T03:56:04.752Z,8.35
2017-11-08T03:58:39.592Z,8.38
2017-11-08T04:01:14.461Z,8.42
2017-11-08T04:03:49.587Z,8.37
2017-11-08T04:06:24.400Z,8.39
2017-11-08T04:08:59.246Z,8.43
2017-11-08T04:11:34.050Z,8.44
2017-11-08T04:14:08.851Z,8.43
2017-11-08T04:16:43.973Z,8.44
2017-11-08T04:19:18.979Z,8.47
2017-11-08T04:21:53.587Z,8.52
2017-11-08T04:24:27.586Z,8.53
2017-11-08T04:27:02.712Z,8.55
2017-11-08T04:29:37.621Z,8.55
2017-11-08T04:32:12.467Z,8.53
2017-11-08T04:34:47.207Z,8.48
2017-11-08T04:37:21.936Z,8.50
2017-11-08T04:39:56.879Z,8.35
2017-11-08T04:42:31.844Z,8.36
2017-11-08T04:45:06.321Z,8.23
2017-11-08T04:47:41.447Z,8.28
2017-11-08T04:50:16.468Z,8.26
2017-11-08T04:52:51.390Z,8.27
2017-11-08T04:55:26.344Z,8.19
2017-11-08T04:58:01.251Z,8.22
2017-11-08T05:00:36.220Z,8.20
2017-11-08T05:03:11.248Z,8.18
2017-11-08T05:05:46.369Z,8.17
2017-11-08T05:08:22.620Z,8.19
2017-11-08T05:10:57.243Z,8.19
2017-11-08T05:13:32.505Z,8.17
2017-11-08T05:16:07.922Z,8.15
2017-11-08T05:18:43.175Z,8.08
2017-11-08T05:21:17.535Z,8.04
2017-11-08T05:23:52.876Z,8.02
2017-11-08T05:26:28.199Z,8.09
2017-11-08T05:29:02.840Z,8.16
2017-11-08T05:31:37.668Z,8.27
2017-11-08T05:34:12.516Z,8.31
2017-11-08T05:36:47.108Z,8.35
2017-11-08T05:39:22.352Z,8.36
2017-11-08T05:41:57.260Z,8.39
2017-11-08T05:44:31.994Z,8.39
2017-11-08T05:47:06.782Z,8.41
2017-11-08T05:49:41.399Z,8.47
2017-11-08T05:52:16.203Z,8.49
2017-11-08T05:54:51.463Z,8.52
2017-11-08T05:57:26.393Z,8.58
2017-11-08T06:00:01.415Z,8.59
2017-11-08T06:02:36.584Z,8.59
2017-11-08T06:05:11.611Z,8.60
2017-11-08T06:07:46.616Z,8.70
2017-11-08T06:10:21.740Z,8.96
2017-11-08T06:12:56.987Z,9.43
2017-11-08T06:15:32.116Z,9.80
2017-11-08T06:18:07.068Z,10.23
2017-11-08T06:20:42.497Z,10.24
2017-11-08T06:23:17.440Z,9.91
2017-11-08T06:25:51.690Z,9.67
2017-11-08T06:28:26.878Z,9.45
2017-11-08T06:31:01.935Z,9.25
2017-11-08T06:33:36.655Z,9.12
2017-11-08T06:36:11.360Z,9.00
2017-11-08T06:38:46.315Z,8.97
2017-11-08T06:41:20.696Z,8.93
2017-11-08T06:43:55.999Z,8.92
2017-11-08T06:46:30.900Z,8.88
2017-11-08T06:49:05.852Z,8.87
2017-11-08T06:51:40.792Z,8.86
2017-11-08T06:54:15.416Z,8.81
2017-11-08T06:56:50.212Z,8.80
2017-11-08T06:59:25.072Z,8.80
2017-11-08T07:02:00.019Z,8.73
2017-11-08T07:04:35.416Z,8.72
2017-11-08T07:07:10.079Z,8.77
2017-11-08T07:09:45.116Z,8.72
2017-11-08T07:12:19.936Z,8.64
2017-11-08T07:14:54.808Z,8.67
2017-11-08T07:17:31.318Z,8.69
2017-11-08T07:20:06.581Z,8.72
2017-11-08T07:22:41.303Z,8.73
2017-11-08T07:25:16.423Z,8.65
2017-11-08T07:27:51.952Z,8.63
2017-11-08T07:30:26.829Z,8.66
2017-11-08T07:33:01.860Z,8.66
2017-11-08T07:35:36.708Z,8.65
2017-11-08T07:38:11.752Z,8.72
2017-11-08T07:40:46.664Z,8.78
2017-11-08T07:43:21.310Z,8.81
2017-11-08T07:45:56.489Z,8.79
2017-11-08T07:48:30.883Z,8.84
2017-11-08T07:51:05.728Z,8.87
2017-11-08T07:53:40.743Z,8.88
2017-11-08T07:56:15.664Z,8.91
2017-11-08T07:58:50.343Z,8.95
2017-11-08T08:01:25.372Z,8.97
2017-11-08T08:04:00.328Z,8.97
2017-11-08T08:06:35.179Z,9.00
2017-11-08T08:09:09.935Z,9.04
2017-11-08T08:11:47.492Z,9.10
2017-11-08T08:14:22.867Z,9.06
2017-11-08T08:16:57.264Z,9.03
2017-11-08T08:19:32.096Z,9.00
2017-11-08T08:22:06.800Z,8.99
2017-11-08T08:24:41.727Z,9.06
2017-11-08T08:27:16.244Z,9.00
2017-11-08T08:29:51.134Z,8.90
2017-11-08T08:32:26.174Z,8.94
2017-11-08T08:35:01.099Z,8.86
2017-11-08T08:37:35.959Z,8.79
2017-11-08T08:40:10.756Z,8.80
2017-11-08T08:42:45.483Z,8.82
2017-11-08T08:45:20.742Z,8.83
2017-11-08T08:47:56.098Z,8.83
2017-11-08T08:50:30.897Z,8.95
2017-11-08T08:53:06.019Z,9.04
2017-11-08T08:55:40.843Z,9.05
2017-11-08T08:58:15.709Z,9.04
2017-11-08T09:00:50.529Z,9.04
2017-11-08T09:03:25.392Z,9.05
2017-11-08T09:06:00.388Z,9.12
2017-11-08T09:08:35.418Z,9.11
2017-11-08T09:11:10.493Z,9.12
2017-11-08T09:13:45.395Z,9.14
2017-11-08T09:16:20.265Z,9.13
2017-11-08T09:18:55.084Z,9.06
2017-11-08T09:21:32.411Z,8.99
2017-11-08T09:24:07.435Z,9.00
2017-11-08T09:26:45.183Z,8.99
2017-11-08T09:29:25.339Z,9.04
2017-11-08T09:32:00.888Z,9.07
2017-11-08T09:34:35.608Z,9.13
2017-11-08T09:37:10.419Z,9.13
2017-11-08T09:39:44.871Z,9.18
2017-11-08T09:42:21.009Z,9.25
2017-11-08T09:44:55.793Z,9.27
2017-11-08T09:47:30.814Z,9.17
2017-11-08T09:50:05.768Z,9.20
2017-11-08T09:52:42.167Z,9.25
2017-11-08T09:55:16.857Z,9.27
2017-11-08T09:57:51.675Z,9.29
2017-11-08T10:00:25.972Z,9.23
2017-11-08T10:03:01.127Z,9.27
2017-11-08T10:05:36.867Z,9.25
2017-11-08T10:08:11.670Z,9.30
2017-11-08T10:10:46.265Z,9.26
2017-11-08T10:13:27.823Z,9.19
2017-11-08T10:16:03.269Z,9.25
2017-11-08T10:18:37.991Z,9.35
2017-11-08T10:21:12.984Z,9.44
2017-11-08T10:23:48.484Z,9.53
2017-11-08T10:26:22.956Z,9.55
2017-11-08T10:28:57.964Z,9.61
2017-11-08T10:31:32.687Z,9.50
2017-11-08T10:34:07.286Z,9.38
2017-11-08T10:36:42.140Z,9.44
2017-11-08T10:39:16.945Z,9.51
2017-11-08T10:41:51.887Z,9.59
2017-11-08T10:44:26.579Z,9.66
2017-11-08T10:47:01.889Z,9.67
2017-11-08T10:49:36.906Z,9.71
2017-11-08T10:52:11.435Z,9.83
2017-11-08T10:54:46.093Z,9.80
2017-11-08T10:57:20.592Z,9.85
2017-11-08T11:13:24.056Z,9.74
2017-11-08T11:15:59.013Z,9.84
2017-11-08T11:18:33.668Z,9.89
2017-11-08T11:21:08.248Z,9.97
2017-11-08T11:23:48.085Z,10.11
2017-11-08T11:26:28.125Z,10.16
2017-11-08T11:29:02.512Z,10.08
2017-11-08T11:31:37.186Z,9.97
2017-11-08T11:34:11.978Z,10.03
2017-11-08T11:36:46.620Z,9.73
2017-11-08T11:39:21.275Z,9.92
2017-11-08T11:41:56.056Z,9.88
2017-11-08T11:44:30.797Z,9.99
2017-11-08T11:47:05.496Z,10.08
2017-11-08T11:49:40.227Z,10.04
2017-11-08T11:52:15.028Z,9.99
2017-11-08T11:54:49.803Z,10.04
2017-11-08T11:57:24.652Z,10.02
2017-11-08T12:00:03.238Z,10.03
2017-11-08T12:02:38.388Z,10.14
2017-11-08T12:05:12.889Z,10.11
2017-11-08T12:07:47.748Z,10.11
2017-11-08T12:10:27.113Z,10.08
2017-11-08T12:13:01.404Z,10.01
2017-11-08T12:15:36.236Z,10.06
2017-11-08T12:18:14.459Z,10.06
2017-11-08T12:20:49.096Z,10.13
2017-11-08T12:23:23.724Z,10.15
2017-11-08T12:25:58.586Z,10.23
2017-11-08T12:28:32.976Z,10.28
2017-11-08T12:31:07.605Z,10.29
2017-11-08T12:33:43.652Z,10.29
2017-11-08T12:36:17.989Z,10.31
2017-11-08T12:38:52.853Z,10.28
2017-11-08T12:41:29.350Z,10.28
2017-11-08T12:44:04.278Z,10.31
2017-11-08T12:46:39.081Z,10.33
2017-11-08T12:49:14.214Z,10.37
2017-11-08T12:51:48.784Z,10.41
2017-11-08T12:54:23.233Z,10.41
2017-11-08T12:56:57.948Z,10.43
2017-11-08T12:59:33.120Z,10.43
2017-11-08T13:02:07.916Z,10.42
2017-11-08T13:04:42.980Z,10.41
2017-11-08T13:07:17.698Z,10.34
2017-11-08T13:09:52.347Z,10.23
2017-11-08T13:12:27.265Z,10.31
2017-11-08T13:15:01.934Z,10.32
2017-11-08T13:17:36.763Z,10.29
2017-11-08T13:20:11.725Z,10.25
2017-11-08T13:22:46.388Z,10.26
2017-11-08T13:25:21.145Z,10.13
2017-11-08T13:27:55.622Z,10.19
2017-11-08T13:30:30.276Z,10.12
2017-11-08T13:33:04.982Z,10.08
2017-11-08T13:35:39.608Z,10.15
2017-11-08T13:38:14.389Z,10.18
2017-11-08T13:40:49.193Z,10.15
2017-11-08T13:43:25.300Z,10.13
2017-11-08T13:46:00.254Z,10.13
2017-11-08T13:48:34.857Z,10.12
2017-11-08T13:51:10.247Z,9.93
2017-11-08T13:53:44.751Z,9.96
2017-11-08T13:56:19.565Z,10.02
2017-11-08T13:58:54.570Z,10.06
2017-11-08T14:01:29.325Z,10.03
2017-11-08T14:04:07.148Z,10.00
2017-11-08T14:06:42.524Z,10.03
2017-11-08T14:09:17.352Z,10.01
2017-11-08T14:11:55.684Z,10.03
2017-11-08T14:14:30.156Z,10.00
2017-11-08T14:17:04.914Z,10.01
2017-11-08T14:19:39.937Z,9.90
2017-11-08T14:22:15.719Z,9.89
2017-11-08T14:24:50.272Z,9.93
2017-11-08T14:27:25.188Z,10.00
2017-11-08T14:30:01.616Z,9.98
2017-11-08T14:32:39.780Z,10.00
2017-11-08T14:35:14.266Z,9.99
2017-11-08T14:37:49.613Z,9.94
2017-11-08T14:40:24.532Z,9.85
2017-11-08T14:42:59.789Z,9.92
2017-11-08T14:45:34.652Z,9.86
2017-11-08T14:48:09.645Z,9.86
2017-11-08T14:50:44.477Z,9.85
2017-11-08T14:53:23.107Z,9.84
2017-11-08T14:55:58.318Z,9.78
2017-11-08T14:58:33.914Z,9.78
2017-11-08T15:01:08.945Z,9.74
2017-11-08T15:03:43.939Z,9.71
2017-11-08T15:06:18.764Z,9.66
2017-11-08T15:08:53.720Z,9.61
2017-11-08T15:11:28.490Z,9.60
2017-11-08T15:14:04.580Z,9.64
2017-11-08T15:16:40.097Z,9.51
2017-11-08T15:19:15.097Z,9.62
2017-11-08T15:21:50.516Z,9.66
2017-11-08T15:24:25.577Z,9.69
2017-11-08T15:27:00.514Z,9.73
2017-11-08T15:29:37.481Z,9.78
2017-11-08T15:32:12.172Z,9.86
2017-11-08T15:34:47.981Z,9.91
2017-11-08T15:37:22.965Z,9.93
2017-11-08T15:39:59.389Z,9.89
2017-11-08T15:42:34.529Z,9.90
2017-11-08T15:45:10.401Z,9.93
2017-11-08T15:47:47.180Z,9.96
2017-11-08T15:50:21.977Z,9.97
2017-11-08T15:52:56.762Z,9.97
2017-11-08T15:55:32.018Z,9.95
2017-11-08T15:58:07.137Z,9.98
2017-11-08T16:00:42.037Z,9.97
2017-11-08T16:03:17.721Z,9.91
2017-11-08T16:05:52.993Z,9.90
2017-11-08T16:08:27.745Z,9.94
2017-11-08T16:11:02.676Z,9.98
2017-11-08T16:13:37.617Z,9.99
2017-11-08T16:16:12.866Z,10.02
2017-11-08T16:18:47.936Z,10.05
2017-11-08T16:21:22.560Z,10.06
2017-11-08T16:23:58.489Z,10.05
2017-11-08T16:26:33.402Z,10.05
2017-11-08T16:29:08.250Z,10.02
2017-11-08T16:31:49.720Z,9.97
2017-11-08T16:34:24.145Z,9.99
2017-11-08T16:36:59.421Z,9.98
2017-11-08T16:39:35.062Z,9.96
2017-11-08T16:42:10.951Z,9.94
2017-11-08T16:44:46.453Z,9.91
2017-11-08T16:47:21.588Z,9.92
2017-11-08T16:49:56.289Z,9.90
2017-11-08T16:52:31.205Z,9.89
2017-11-08T16:55:05.825Z,9.89
2017-11-08T16:57:40.769Z,9.90
2017-11-08T17:00:15.862Z,9.87
2017-11-08T17:02:51.065Z,9.82
2017-11-08T17:05:25.913Z,9.80
2017-11-08T17:08:01.032Z,9.79
2017-11-08T17:10:35.769Z,9.79
2017-11-08T17:13:10.829Z,9.80
2017-11-08T17:15:45.828Z,9.80
2017-11-08T17:18:21.555Z,9.81
2017-11-08T17:20:56.455Z,9.83
2017-11-08T17:23:31.660Z,9.85
2017-11-08T17:26:06.737Z,9.88
2017-11-08T17:28:41.841Z,9.88
2017-11-08T17:31:17.121Z,9.90
2017-11-08T17:33:52.006Z,9.91
2017-11-08T17:36:27.054Z,9.90
2017-11-08T17:39:02.721Z,9.90
2017-11-08T17:41:37.686Z,9.90
2017-11-08T17:44:12.491Z,9.90
2017-11-08T17:46:47.693Z,9.83
2017-11-08T17:49:22.669Z,9.83
2017-11-08T17:51:58.086Z,9.83
2017-11-08T17:54:33.244Z,9.80
2017-11-08T17:57:08.485Z,9.79
2017-11-08T17:59:44.229Z,9.81
2017-11-08T18:02:19.157Z,9.79
2017-11-08T18:04:54.337Z,9.79
2017-11-08T18:07:28.756Z,9.79
2017-11-08T18:10:03.537Z,9.79
2017-11-08T18:12:38.529Z,9.78
2017-11-08T18:15:13.151Z,9.76
2017-11-08T18:17:48.452Z,9.74
2017-11-08T18:20:23.229Z,9.78
2017-11-08T18:22:57.613Z,9.81
2017-11-08T18:25:32.636Z,9.80
2017-11-08T18:28:07.436Z,9.78
2017-11-08T18:30:42.175Z,9.76
2017-11-08T18:33:16.994Z,9.78
2017-11-08T18:35:51.829Z,9.76
2017-11-08T18:38:26.634Z,9.75
2017-11-08T18:41:01.762Z,9.76
2017-11-08T18:43:36.883Z,9.74
2017-11-08T18:46:12.095Z,9.71
2017-11-08T18:48:47.241Z,9.69
2017-11-08T18:51:22.530Z,9.67
2017-11-08T18:53:57.525Z,9.68
2017-11-08T18:56:31.899Z,9.65
2017-11-08T18:59:07.425Z,9.64
2017-11-08T19:01:42.990Z,9.66
2017-11-08T19:04:17.972Z,9.63
2017-11-08T19:06:53.108Z,9.64
2017-11-08T19:09:28.240Z,9.65
2017-11-08T19:12:03.313Z,9.63
2017-11-08T19:14:38.344Z,9.61
2017-11-08T19:17:13.072Z,9.60
2017-11-08T19:19:48.419Z,9.61
2017-11-08T19:22:23.560Z,9.61
2017-11-08T19:24:57.825Z,9.63
2017-11-08T19:27:33.188Z,9.61
2017-11-08T19:30:07.951Z,9.63
2017-11-08T19:32:42.819Z,9.63
2017-11-08T19:35:17.774Z,9.66
2017-11-08T19:37:52.725Z,9.68
2017-11-08T19:40:27.408Z,9.68
2017-11-08T19:43:02.425Z,9.68
2017-11-08T19:45:37.621Z,9.68
2017-11-08T19:48:12.852Z,9.68
2017-11-08T19:50:47.918Z,9.69
2017-11-08T19:53:22.961Z,9.69
2017-11-08T19:55:58.259Z,9.69
2017-11-08T19:58:33.365Z,9.72
2017-11-08T20:01:08.416Z,9.71
2017-11-08T20:03:43.201Z,9.69
2017-11-08T20:06:18.310Z,9.69
2017-11-08T20:08:53.456Z,9.67
2017-11-08T20:11:28.269Z,9.69
2017-11-08T20:14:03.180Z,9.67
2017-11-08T20:16:37.997Z,9.70
2017-11-08T20:19:13.798Z,9.73
2017-11-08T20:21:48.754Z,9.74
2017-11-08T20:24:23.891Z,9.70
2017-11-08T20:26:58.507Z,9.66
2017-11-08T20:29:33.336Z,9.67
2017-11-08T20:32:07.960Z,9.66
2017-11-08T20:34:42.842Z,9.67
2017-11-08T20:37:17.632Z,9.69
2017-11-08T20:39:52.461Z,9.71
2017-11-08T20:42:27.073Z,9.67
2017-11-08T20:45:02.242Z,9.68
2017-11-08T20:47:37.261Z,9.71
2017-11-08T20:50:12.178Z,9.70
2017-11-08T20:52:47.190Z,9.70
2017-11-08T20:55:22.217Z,9.73
2017-11-08T20:57:57.140Z,9.73
2017-11-08T21:00:32.136Z,9.74
2017-11-08T21:03:07.085Z,9.75
2017-11-08T21:05:41.998Z,9.78
2017-11-08T21:08:17.085Z,9.78
2017-11-08T21:10:52.212Z,9.75
2017-11-08T21:13:27.169Z,9.78
2017-11-08T21:16:01.919Z,9.69
2017-11-08T21:18:36.941Z,9.61
2017-11-08T21:21:12.369Z,9.58
2017-11-08T21:23:46.986Z,9.51
2017-11-08T21:26:22.313Z,9.50
2017-11-08T21:28:57.242Z,9.52
2017-11-08T21:31:32.169Z,9.55
2017-11-08T21:34:06.705Z,9.60
2017-11-08T21:36:41.949Z,9.66
2017-11-08T21:39:16.674Z,9.72
2017-11-08T21:41:51.701Z,9.76
2017-11-08T21:44:27.386Z,9.75
2017-11-08T21:47:02.254Z,9.76
2017-11-08T21:49:37.163Z,9.77
2017-11-08T21:52:12.042Z,9.76
2017-11-08T21:54:47.412Z,9.72
2017-11-08T21:57:22.725Z,9.64
2017-11-08T21:59:57.856Z,9.58
2017-11-08T22:02:32.620Z,9.54
2017-11-08T22:05:07.308Z,9.54
2017-11-08T22:07:42.322Z,9.55
2017-11-08T22:10:17.544Z,9.57
2017-11-08T22:12:52.788Z,9.55
2017-11-08T22:15:27.650Z,9.48
2017-11-08T22:18:02.589Z,9.43
2017-11-08T22:20:52.881Z,9.36
2017-11-08T22:23:27.678Z,9.37
2017-11-08T22:26:02.546Z,9.39
2017-11-08T22:28:37.706Z,9.40
2017-11-08T22:31:12.517Z,9.43
2017-11-08T22:33:47.242Z,9.44
2017-11-08T22:36:21.733Z,9.48
2017-11-08T22:38:56.197Z,9.50
2017-11-08T22:41:30.909Z,9.52
2017-11-08T22:44:05.714Z,9.55
2017-11-08T22:46:40.885Z,9.56
2017-11-08T22:49:16.110Z,9.57
2017-11-08T22:51:50.926Z,9.56
2017-11-08T22:54:25.860Z,9.53
2017-11-08T22:57:02.251Z,9.49
2017-11-08T22:59:37.301Z,9.47
2017-11-08T23:02:12.242Z,9.42
2017-11-08T23:04:47.664Z,9.38
2017-11-08T23:07:22.809Z,9.36
2017-11-08T23:09:58.051Z,9.36
2017-11-08T23:12:33.202Z,9.37
2017-11-08T23:15:07.832Z,9.36
2017-11-08T23:17:42.582Z,9.30
2017-11-08T23:20:17.540Z,9.21
2017-11-08T23:22:52.492Z,9.17
2017-11-08T23:25:27.229Z,9.14
2017-11-08T23:28:02.989Z,9.11
2017-11-08T23:30:37.718Z,9.13
2017-11-08T23:33:12.307Z,9.17
2017-11-08T23:35:47.223Z,9.18
2017-11-08T23:38:22.213Z,9.20
2017-11-08T23:40:56.967Z,9.24
2017-11-08T23:43:31.894Z,9.27
2017-11-08T23:46:07.177Z,9.29
2017-11-08T23:48:42.468Z,9.29
2017-11-08T23:51:17.914Z,9.29
2017-11-08T23:53:52.681Z,9.29
2017-11-08T23:56:31.697Z,9.30
